sensor_id;sensor_type;location;lat;lon;timestamp;P1;durP1;ratioP1;P2;durP2;ratioP2
20084;SDS011;10202;48.474;9.138;2023-06-22T00:01:58;15.57;;;5.80;;
20084;SDS011;10202;48.474;9.138;2023-06-22T00:04:24;10.73;;;5.95;;
20084;SDS011;10202;48.474;9.138;2023-06-22T00:06:50;9.95;;;5.72;;
20084;SDS011;10202;48.474;9.138;2023-06-22T00:09:15;9.48;;;5.78;;
20084;SDS011;10202;48.474;9.138;2023-06-22T00:11:46;9.70;;;5.72;;
20084;SDS011;10202;48.474;9.138;2023-06-22T00:14:16;12.90;;;5.53;;
20084;SDS011;10202;48.474;9.138;2023-06-22T00:16:41;9.63;;;5.78;;
20084;SDS011;10202;48.474;9.138;2023-06-22T00:19:13;11.35;;;6.15;;
20084;SDS011;10202;48.474;9.138;2023-06-22T00:21:43;8.73;;;6.18;;
20084;SDS011;10202;48.474;9.138;2023-06-22T00:24:15;9.93;;;5.50;;
20084;SDS011;10202;48.474;9.138;2023-06-22T00:26:46;7.75;;;5.03;;
20084;SDS011;10202;48.474;9.138;2023-06-22T00:29:15;7.75;;;5.10;;
20084;SDS011;10202;48.474;9.138;2023-06-22T00:31:42;8.45;;;5.70;;
20084;SDS011;10202;48.474;9.138;2023-06-22T00:34:14;10.23;;;5.50;;
20084;SDS011;10202;48.474;9.138;2023-06-22T00:36:42;7.82;;;5.75;;
20084;SDS011;10202;48.474;9.138;2023-06-22T00:39:12;8.23;;;5.50;;
20084;SDS011;10202;48.474;9.138;2023-06-22T00:41:40;8.23;;;5.07;;
20084;SDS011;10202;48.474;9.138;2023-06-22T00:44:08;8.52;;;6.00;;
20084;SDS011;10202;48.474;9.138;2023-06-22T00:46:36;10.25;;;5.25;;
20084;SDS011;10202;48.474;9.138;2023-06-22T00:49:04;7.43;;;5.75;;
20084;SDS011;10202;48.474;9.138;2023-06-22T00:51:30;11.80;;;5.80;;
20084;SDS011;10202;48.474;9.138;2023-06-22T00:54:01;10.48;;;5.78;;
20084;SDS011;10202;48.474;9.138;2023-06-22T00:56:34;10.43;;;5.82;;
20084;SDS011;10202;48.474;9.138;2023-06-22T00:59:07;9.43;;;6.18;;
20084;SDS011;10202;48.474;9.138;2023-06-22T01:01:37;10.45;;;6.05;;
20084;SDS011;10202;48.474;9.138;2023-06-22T01:04:06;8.32;;;5.78;;
20084;SDS011;10202;48.474;9.138;2023-06-22T01:06:45;9.82;;;6.45;;
20084;SDS011;10202;48.474;9.138;2023-06-22T01:09:27;10.75;;;6.57;;
20084;SDS011;10202;48.474;9.138;2023-06-22T01:12:01;13.13;;;6.20;;
20084;SDS011;10202;48.474;9.138;2023-06-22T01:14:35;8.90;;;6.22;;
20084;SDS011;10202;48.474;9.138;2023-06-22T01:17:08;9.35;;;6.25;;
20084;SDS011;10202;48.474;9.138;2023-06-22T01:19:43;10.88;;;6.50;;
20084;SDS011;10202;48.474;9.138;2023-06-22T01:22:25;10.70;;;6.32;;
20084;SDS011;10202;48.474;9.138;2023-06-22T01:30:42;7.85;;;6.00;;
20084;SDS011;10202;48.474;9.138;2023-06-22T01:33:11;13.13;;;6.18;;
20084;SDS011;10202;48.474;9.138;2023-06-22T01:35:44;10.43;;;6.68;;
20084;SDS011;10202;48.474;9.138;2023-06-22T01:38:12;10.60;;;6.60;;
20084;SDS011;10202;48.474;9.138;2023-06-22T01:40:42;10.98;;;6.90;;
20084;SDS011;10202;48.474;9.138;2023-06-22T01:43:12;11.05;;;6.10;;
20084;SDS011;10202;48.474;9.138;2023-06-22T01:45:40;12.50;;;6.22;;
20084;SDS011;10202;48.474;9.138;2023-06-22T01:48:06;13.23;;;6.72;;
20084;SDS011;10202;48.474;9.138;2023-06-22T01:50:34;10.25;;;6.38;;
20084;SDS011;10202;48.474;9.138;2023-06-22T01:52:59;10.27;;;7.18;;
20084;SDS011;10202;48.474;9.138;2023-06-22T01:55:30;10.95;;;6.72;;
20084;SDS011;10202;48.474;9.138;2023-06-22T01:57:57;13.43;;;6.75;;
20084;SDS011;10202;48.474;9.138;2023-06-22T02:00:28;9.70;;;7.07;;
20084;SDS011;10202;48.474;9.138;2023-06-22T02:03:06;10.25;;;6.57;;
20084;SDS011;10202;48.474;9.138;2023-06-22T02:05:39;11.57;;;7.93;;
20084;SDS011;10202;48.474;9.138;2023-06-22T02:08:16;11.52;;;6.90;;
20084;SDS011;10202;48.474;9.138;2023-06-22T02:10:48;9.50;;;7.25;;
20084;SDS011;10202;48.474;9.138;2023-06-22T02:13:17;12.68;;;7.40;;
20084;SDS011;10202;48.474;9.138;2023-06-22T02:15:43;14.25;;;7.88;;
20084;SDS011;10202;48.474;9.138;2023-06-22T02:18:11;10.43;;;7.28;;
20084;SDS011;10202;48.474;9.138;2023-06-22T02:20:40;11.32;;;7.28;;
20084;SDS011;10202;48.474;9.138;2023-06-22T02:23:10;10.45;;;7.10;;
20084;SDS011;10202;48.474;9.138;2023-06-22T02:25:38;16.67;;;8.05;;
20084;SDS011;10202;48.474;9.138;2023-06-22T02:28:04;12.00;;;7.57;;
20084;SDS011;10202;48.474;9.138;2023-06-22T02:30:32;11.68;;;7.40;;
20084;SDS011;10202;48.474;9.138;2023-06-22T02:32:58;11.98;;;7.10;;
20084;SDS011;10202;48.474;9.138;2023-06-22T02:35:27;13.82;;;7.63;;
20084;SDS011;10202;48.474;9.138;2023-06-22T02:38:01;11.88;;;7.82;;
20084;SDS011;10202;48.474;9.138;2023-06-22T02:40:33;10.93;;;7.35;;
20084;SDS011;10202;48.474;9.138;2023-06-22T02:42:58;13.80;;;7.68;;
20084;SDS011;10202;48.474;9.138;2023-06-22T02:45:27;10.50;;;7.50;;
20084;SDS011;10202;48.474;9.138;2023-06-22T02:47:56;8.68;;;6.97;;
20084;SDS011;10202;48.474;9.138;2023-06-22T02:50:24;13.15;;;6.20;;
20084;SDS011;10202;48.474;9.138;2023-06-22T02:52:52;15.25;;;6.97;;
20084;SDS011;10202;48.474;9.138;2023-06-22T02:55:18;17.00;;;7.18;;
20084;SDS011;10202;48.474;9.138;2023-06-22T02:57:54;12.43;;;7.18;;
20084;SDS011;10202;48.474;9.138;2023-06-22T03:00:22;13.18;;;7.82;;
20084;SDS011;10202;48.474;9.138;2023-06-22T03:02:51;12.10;;;8.10;;
20084;SDS011;10202;48.474;9.138;2023-06-22T03:05:18;10.68;;;7.47;;
20084;SDS011;10202;48.474;9.138;2023-06-22T03:07:47;10.70;;;6.97;;
20084;SDS011;10202;48.474;9.138;2023-06-22T03:10:13;10.65;;;6.90;;
20084;SDS011;10202;48.474;9.138;2023-06-22T03:12:42;14.15;;;7.28;;
20084;SDS011;10202;48.474;9.138;2023-06-22T03:15:11;12.93;;;7.30;;
20084;SDS011;10202;48.474;9.138;2023-06-22T03:17:38;13.40;;;7.97;;
20084;SDS011;10202;48.474;9.138;2023-06-22T03:20:08;18.50;;;8.35;;
20084;SDS011;10202;48.474;9.138;2023-06-22T03:22:39;17.60;;;7.93;;
20084;SDS011;10202;48.474;9.138;2023-06-22T03:25:06;15.30;;;7.70;;
20084;SDS011;10202;48.474;9.138;2023-06-22T03:27:39;22.02;;;8.27;;
20084;SDS011;10202;48.474;9.138;2023-06-22T03:30:11;15.55;;;7.57;;
20084;SDS011;10202;48.474;9.138;2023-06-22T03:32:39;12.15;;;7.95;;
20084;SDS011;10202;48.474;9.138;2023-06-22T03:35:05;12.07;;;7.50;;
20084;SDS011;10202;48.474;9.138;2023-06-22T03:37:34;10.55;;;7.38;;
20084;SDS011;10202;48.474;9.138;2023-06-22T03:40:00;12.48;;;7.32;;
20084;SDS011;10202;48.474;9.138;2023-06-22T03:42:27;12.20;;;8.20;;
20084;SDS011;10202;48.474;9.138;2023-06-22T03:44:53;12.70;;;7.85;;
20084;SDS011;10202;48.474;9.138;2023-06-22T03:47:18;10.90;;;8.00;;
20084;SDS011;10202;48.474;9.138;2023-06-22T03:49:44;10.52;;;7.43;;
20084;SDS011;10202;48.474;9.138;2023-06-22T03:52:12;14.68;;;7.50;;
20084;SDS011;10202;48.474;9.138;2023-06-22T03:54:37;17.67;;;7.47;;
20084;SDS011;10202;48.474;9.138;2023-06-22T03:57:03;11.27;;;7.53;;
20084;SDS011;10202;48.474;9.138;2023-06-22T03:59:33;13.25;;;8.00;;
20084;SDS011;10202;48.474;9.138;2023-06-22T04:01:59;15.07;;;8.00;;
20084;SDS011;10202;48.474;9.138;2023-06-22T04:04:24;12.93;;;7.15;;
20084;SDS011;10202;48.474;9.138;2023-06-22T04:06:50;12.43;;;7.60;;
20084;SDS011;10202;48.474;9.138;2023-06-22T04:09:23;12.13;;;7.85;;
20084;SDS011;10202;48.474;9.138;2023-06-22T04:11:51;12.57;;;7.50;;
20084;SDS011;10202;48.474;9.138;2023-06-22T04:14:26;12.23;;;7.63;;
20084;SDS011;10202;48.474;9.138;2023-06-22T04:16:52;11.43;;;7.53;;
20084;SDS011;10202;48.474;9.138;2023-06-22T04:19:17;14.30;;;7.90;;
20084;SDS011;10202;48.474;9.138;2023-06-22T04:21:45;12.50;;;8.02;;
20084;SDS011;10202;48.474;9.138;2023-06-22T04:24:14;10.13;;;7.95;;
20084;SDS011;10202;48.474;9.138;2023-06-22T04:26:39;12.98;;;8.15;;
20084;SDS011;10202;48.474;9.138;2023-06-22T04:29:07;12.75;;;8.10;;
20084;SDS011;10202;48.474;9.138;2023-06-22T04:31:38;10.57;;;8.02;;
20084;SDS011;10202;48.474;9.138;2023-06-22T04:34:06;13.32;;;8.20;;
20084;SDS011;10202;48.474;9.138;2023-06-22T04:36:39;11.63;;;8.13;;
20084;SDS011;10202;48.474;9.138;2023-06-22T04:39:10;12.63;;;7.70;;
20084;SDS011;10202;48.474;9.138;2023-06-22T04:41:39;12.52;;;7.22;;
20084;SDS011;10202;48.474;9.138;2023-06-22T04:44:11;10.32;;;7.55;;
20084;SDS011;10202;48.474;9.138;2023-06-22T04:46:58;10.85;;;7.22;;
20084;SDS011;10202;48.474;9.138;2023-06-22T04:49:30;14.15;;;7.53;;
20084;SDS011;10202;48.474;9.138;2023-06-22T04:52:01;11.43;;;7.82;;
20084;SDS011;10202;48.474;9.138;2023-06-22T04:54:31;13.13;;;6.93;;
20084;SDS011;10202;48.474;9.138;2023-06-22T04:57:04;13.82;;;7.20;;
20084;SDS011;10202;48.474;9.138;2023-06-22T04:59:35;14.02;;;7.40;;
20084;SDS011;10202;48.474;9.138;2023-06-22T05:02:04;13.38;;;7.35;;
20084;SDS011;10202;48.474;9.138;2023-06-22T05:04:33;12.55;;;8.93;;
20084;SDS011;10202;48.474;9.138;2023-06-22T05:07:03;13.23;;;7.78;;
20084;SDS011;10202;48.474;9.138;2023-06-22T05:09:29;16.75;;;8.23;;
20084;SDS011;10202;48.474;9.138;2023-06-22T05:12:01;15.10;;;8.82;;
20084;SDS011;10202;48.474;9.138;2023-06-22T05:14:29;15.85;;;9.15;;
20084;SDS011;10202;48.474;9.138;2023-06-22T05:16:57;12.80;;;9.30;;
20084;SDS011;10202;48.474;9.138;2023-06-22T05:19:24;15.40;;;10.05;;
20084;SDS011;10202;48.474;9.138;2023-06-22T05:21:56;14.43;;;8.90;;
20084;SDS011;10202;48.474;9.138;2023-06-22T05:24:22;13.80;;;9.05;;
20084;SDS011;10202;48.474;9.138;2023-06-22T05:26:52;16.08;;;9.07;;
20084;SDS011;10202;48.474;9.138;2023-06-22T05:29:17;12.95;;;9.05;;
20084;SDS011;10202;48.474;9.138;2023-06-22T05:31:47;16.92;;;9.70;;
20084;SDS011;10202;48.474;9.138;2023-06-22T05:34:12;16.80;;;9.38;;
20084;SDS011;10202;48.474;9.138;2023-06-22T05:36:42;16.25;;;9.18;;
20084;SDS011;10202;48.474;9.138;2023-06-22T05:39:12;12.90;;;8.43;;
20084;SDS011;10202;48.474;9.138;2023-06-22T05:41:39;11.85;;;8.98;;
20084;SDS011;10202;48.474;9.138;2023-06-22T05:44:08;14.45;;;8.88;;
20084;SDS011;10202;48.474;9.138;2023-06-22T05:46:33;13.55;;;8.73;;
20084;SDS011;10202;48.474;9.138;2023-06-22T05:49:02;17.77;;;8.60;;
20084;SDS011;10202;48.474;9.138;2023-06-22T05:51:27;14.75;;;8.75;;
20084;SDS011;10202;48.474;9.138;2023-06-22T05:53:55;16.88;;;8.80;;
20084;SDS011;10202;48.474;9.138;2023-06-22T05:56:23;13.57;;;9.00;;
20084;SDS011;10202;48.474;9.138;2023-06-22T05:58:48;14.75;;;8.95;;
20084;SDS011;10202;48.474;9.138;2023-06-22T06:01:14;11.25;;;7.47;;
20084;SDS011;10202;48.474;9.138;2023-06-22T06:03:43;13.02;;;8.95;;
20084;SDS011;10202;48.474;9.138;2023-06-22T06:06:09;16.48;;;8.60;;
20084;SDS011;10202;48.474;9.138;2023-06-22T06:08:36;13.18;;;8.13;;
20084;SDS011;10202;48.474;9.138;2023-06-22T06:11:05;12.25;;;8.57;;
20084;SDS011;10202;48.474;9.138;2023-06-22T06:13:33;13.45;;;8.38;;
20084;SDS011;10202;48.474;9.138;2023-06-22T06:16:02;13.98;;;7.63;;
20084;SDS011;10202;48.474;9.138;2023-06-22T06:18:29;13.68;;;7.70;;
20084;SDS011;10202;48.474;9.138;2023-06-22T06:21:00;11.20;;;7.13;;
20084;SDS011;10202;48.474;9.138;2023-06-22T06:23:25;15.35;;;8.50;;
20084;SDS011;10202;48.474;9.138;2023-06-22T06:25:53;12.95;;;6.88;;
20084;SDS011;10202;48.474;9.138;2023-06-22T06:28:18;13.85;;;7.03;;
20084;SDS011;10202;48.474;9.138;2023-06-22T06:30:44;13.88;;;7.53;;
20084;SDS011;10202;48.474;9.138;2023-06-22T06:33:12;13.70;;;7.15;;
20084;SDS011;10202;48.474;9.138;2023-06-22T06:35:38;24.52;;;6.50;;
20084;SDS011;10202;48.474;9.138;2023-06-22T06:38:04;13.02;;;7.35;;
20084;SDS011;10202;48.474;9.138;2023-06-22T06:40:29;15.70;;;6.70;;
20084;SDS011;10202;48.474;9.138;2023-06-22T06:42:57;12.75;;;6.38;;
20084;SDS011;10202;48.474;9.138;2023-06-22T06:45:23;11.63;;;7.07;;
20084;SDS011;10202;48.474;9.138;2023-06-22T06:47:53;10.05;;;6.18;;
20084;SDS011;10202;48.474;9.138;2023-06-22T06:50:27;11.68;;;6.70;;
20084;SDS011;10202;48.474;9.138;2023-06-22T06:52:55;8.93;;;5.90;;
20084;SDS011;10202;48.474;9.138;2023-06-22T06:55:24;7.03;;;5.82;;
20084;SDS011;10202;48.474;9.138;2023-06-22T06:58:01;12.52;;;6.30;;
20084;SDS011;10202;48.474;9.138;2023-06-22T07:00:33;10.75;;;5.90;;
20084;SDS011;10202;48.474;9.138;2023-06-22T07:03:03;12.70;;;5.57;;
20084;SDS011;10202;48.474;9.138;2023-06-22T07:05:32;9.43;;;5.78;;
20084;SDS011;10202;48.474;9.138;2023-06-22T07:08:07;13.73;;;6.63;;
20084;SDS011;10202;48.474;9.138;2023-06-22T07:10:36;13.27;;;5.70;;
20084;SDS011;10202;48.474;9.138;2023-06-22T07:13:09;12.32;;;6.32;;
20084;SDS011;10202;48.474;9.138;2023-06-22T07:15:37;10.23;;;5.82;;
20084;SDS011;10202;48.474;9.138;2023-06-22T07:18:05;14.68;;;6.55;;
20084;SDS011;10202;48.474;9.138;2023-06-22T07:20:33;9.88;;;6.00;;
20084;SDS011;10202;48.474;9.138;2023-06-22T07:23:03;13.02;;;5.93;;
20084;SDS011;10202;48.474;9.138;2023-06-22T07:25:31;14.48;;;6.25;;
20084;SDS011;10202;48.474;9.138;2023-06-22T07:28:03;9.73;;;5.97;;
20084;SDS011;10202;48.474;9.138;2023-06-22T07:30:33;12.18;;;6.10;;
20084;SDS011;10202;48.474;9.138;2023-06-22T07:33:01;11.68;;;5.90;;
20084;SDS011;10202;48.474;9.138;2023-06-22T07:35:36;9.48;;;5.50;;
20084;SDS011;10202;48.474;9.138;2023-06-22T07:38:01;9.82;;;4.95;;
20084;SDS011;10202;48.474;9.138;2023-06-22T07:40:29;11.63;;;5.60;;
20084;SDS011;10202;48.474;9.138;2023-06-22T07:42:57;10.60;;;5.50;;
20084;SDS011;10202;48.474;9.138;2023-06-22T07:45:26;12.50;;;5.68;;
20084;SDS011;10202;48.474;9.138;2023-06-22T07:47:54;9.68;;;5.60;;
20084;SDS011;10202;48.474;9.138;2023-06-22T07:50:24;8.25;;;5.57;;
20084;SDS011;10202;48.474;9.138;2023-06-22T07:52:52;7.90;;;4.90;;
20084;SDS011;10202;48.474;9.138;2023-06-22T07:55:18;12.70;;;5.75;;
20084;SDS011;10202;48.474;9.138;2023-06-22T07:57:46;9.23;;;5.65;;
20084;SDS011;10202;48.474;9.138;2023-06-22T08:00:16;14.88;;;5.70;;
20084;SDS011;10202;48.474;9.138;2023-06-22T08:02:45;7.43;;;5.28;;
20084;SDS011;10202;48.474;9.138;2023-06-22T08:05:14;8.75;;;5.38;;
20084;SDS011;10202;48.474;9.138;2023-06-22T08:07:40;15.98;;;5.40;;
20084;SDS011;10202;48.474;9.138;2023-06-22T08:10:06;9.85;;;5.95;;
20084;SDS011;10202;48.474;9.138;2023-06-22T08:12:35;11.18;;;6.18;;
20084;SDS011;10202;48.474;9.138;2023-06-22T08:15:01;11.07;;;5.68;;
20084;SDS011;10202;48.474;9.138;2023-06-22T08:17:26;9.00;;;5.57;;
20084;SDS011;10202;48.474;9.138;2023-06-22T08:19:52;18.63;;;5.88;;
20084;SDS011;10202;48.474;9.138;2023-06-22T08:22:17;13.48;;;5.47;;
20084;SDS011;10202;48.474;9.138;2023-06-22T08:24:44;10.03;;;5.53;;
20084;SDS011;10202;48.474;9.138;2023-06-22T08:27:09;10.32;;;5.30;;
20084;SDS011;10202;48.474;9.138;2023-06-22T08:29:42;10.25;;;5.00;;
20084;SDS011;10202;48.474;9.138;2023-06-22T08:32:08;9.27;;;5.55;;
20084;SDS011;10202;48.474;9.138;2023-06-22T08:34:37;16.33;;;6.00;;
20084;SDS011;10202;48.474;9.138;2023-06-22T08:37:09;13.20;;;6.07;;
20084;SDS011;10202;48.474;9.138;2023-06-22T08:39:35;10.50;;;5.78;;
20084;SDS011;10202;48.474;9.138;2023-06-22T08:42:03;11.68;;;6.00;;
20084;SDS011;10202;48.474;9.138;2023-06-22T08:44:29;10.40;;;6.32;;
20084;SDS011;10202;48.474;9.138;2023-06-22T08:46:55;13.88;;;5.95;;
20084;SDS011;10202;48.474;9.138;2023-06-22T08:49:22;10.55;;;5.82;;
20084;SDS011;10202;48.474;9.138;2023-06-22T08:51:48;12.10;;;6.15;;
20084;SDS011;10202;48.474;9.138;2023-06-22T08:54:18;13.93;;;6.22;;
20084;SDS011;10202;48.474;9.138;2023-06-22T08:56:49;13.40;;;6.88;;
20084;SDS011;10202;48.474;9.138;2023-06-22T08:59:16;11.43;;;5.70;;
20084;SDS011;10202;48.474;9.138;2023-06-22T09:01:44;10.85;;;5.80;;
20084;SDS011;10202;48.474;9.138;2023-06-22T09:04:13;14.93;;;6.20;;
20084;SDS011;10202;48.474;9.138;2023-06-22T09:06:40;13.05;;;6.53;;
20084;SDS011;10202;48.474;9.138;2023-06-22T09:09:15;10.90;;;5.70;;
20084;SDS011;10202;48.474;9.138;2023-06-22T09:11:41;10.07;;;5.97;;
20084;SDS011;10202;48.474;9.138;2023-06-22T09:14:09;11.35;;;6.45;;
20084;SDS011;10202;48.474;9.138;2023-06-22T09:16:43;12.35;;;6.43;;
20084;SDS011;10202;48.474;9.138;2023-06-22T09:19:11;11.93;;;6.70;;
20084;SDS011;10202;48.474;9.138;2023-06-22T09:21:39;11.90;;;6.75;;
20084;SDS011;10202;48.474;9.138;2023-06-22T09:24:12;14.15;;;6.35;;
20084;SDS011;10202;48.474;9.138;2023-06-22T09:26:40;10.75;;;5.95;;
20084;SDS011;10202;48.474;9.138;2023-06-22T09:29:08;10.30;;;6.10;;
20084;SDS011;10202;48.474;9.138;2023-06-22T09:31:34;14.20;;;6.55;;
20084;SDS011;10202;48.474;9.138;2023-06-22T09:33:59;14.35;;;6.35;;
20084;SDS011;10202;48.474;9.138;2023-06-22T09:36:27;12.73;;;6.00;;
20084;SDS011;10202;48.474;9.138;2023-06-22T09:38:55;10.23;;;6.25;;
20084;SDS011;10202;48.474;9.138;2023-06-22T09:41:24;9.50;;;6.20;;
20084;SDS011;10202;48.474;9.138;2023-06-22T09:43:52;11.05;;;6.70;;
20084;SDS011;10202;48.474;9.138;2023-06-22T09:46:20;17.00;;;6.40;;
20084;SDS011;10202;48.474;9.138;2023-06-22T09:48:50;10.57;;;6.57;;
20084;SDS011;10202;48.474;9.138;2023-06-22T09:51:16;12.55;;;6.57;;
20084;SDS011;10202;48.474;9.138;2023-06-22T09:53:44;12.50;;;6.88;;
20084;SDS011;10202;48.474;9.138;2023-06-22T09:56:12;14.20;;;6.47;;
20084;SDS011;10202;48.474;9.138;2023-06-22T09:58:45;17.25;;;6.47;;
20084;SDS011;10202;48.474;9.138;2023-06-22T10:01:12;13.35;;;6.45;;
20084;SDS011;10202;48.474;9.138;2023-06-22T10:03:41;13.30;;;6.18;;
20084;SDS011;10202;48.474;9.138;2023-06-22T10:06:09;13.40;;;6.68;;
20084;SDS011;10202;48.474;9.138;2023-06-22T10:08:37;12.30;;;6.20;;
20084;SDS011;10202;48.474;9.138;2023-06-22T10:11:05;8.90;;;6.18;;
20084;SDS011;10202;48.474;9.138;2023-06-22T10:13:35;16.13;;;6.35;;
20084;SDS011;10202;48.474;9.138;2023-06-22T10:16:03;12.50;;;6.20;;
20084;SDS011;10202;48.474;9.138;2023-06-22T10:18:32;14.52;;;6.25;;
20084;SDS011;10202;48.474;9.138;2023-06-22T10:20:57;11.93;;;6.38;;
20084;SDS011;10202;48.474;9.138;2023-06-22T10:23:23;10.35;;;5.95;;
20084;SDS011;10202;48.474;9.138;2023-06-22T10:25:50;12.15;;;5.90;;
20084;SDS011;10202;48.474;9.138;2023-06-22T10:28:16;11.88;;;6.55;;
20084;SDS011;10202;48.474;9.138;2023-06-22T10:30:42;9.10;;;6.10;;
20084;SDS011;10202;48.474;9.138;2023-06-22T10:33:08;13.05;;;6.80;;
20084;SDS011;10202;48.474;9.138;2023-06-22T10:35:37;14.63;;;6.35;;
20084;SDS011;10202;48.474;9.138;2023-06-22T10:38:08;11.68;;;6.13;;
20084;SDS011;10202;48.474;9.138;2023-06-22T10:40:33;17.40;;;6.32;;
20084;SDS011;10202;48.474;9.138;2023-06-22T10:42:59;15.25;;;6.90;;
20084;SDS011;10202;48.474;9.138;2023-06-22T10:45:24;10.07;;;5.95;;
20084;SDS011;10202;48.474;9.138;2023-06-22T10:47:50;16.88;;;6.32;;
20084;SDS011;10202;48.474;9.138;2023-06-22T10:50:16;14.70;;;6.28;;
20084;SDS011;10202;48.474;9.138;2023-06-22T10:52:45;10.32;;;6.20;;
20084;SDS011;10202;48.474;9.138;2023-06-22T10:55:13;13.10;;;6.47;;
20084;SDS011;10202;48.474;9.138;2023-06-22T10:57:40;11.45;;;6.85;;
20084;SDS011;10202;48.474;9.138;2023-06-22T11:00:09;12.75;;;6.63;;
20084;SDS011;10202;48.474;9.138;2023-06-22T11:02:44;12.75;;;6.20;;
20084;SDS011;10202;48.474;9.138;2023-06-22T11:05:11;12.85;;;6.75;;
20084;SDS011;10202;48.474;9.138;2023-06-22T11:07:42;15.68;;;6.53;;
20084;SDS011;10202;48.474;9.138;2023-06-22T11:10:12;10.77;;;6.10;;
20084;SDS011;10202;48.474;9.138;2023-06-22T11:12:44;12.88;;;6.93;;
20084;SDS011;10202;48.474;9.138;2023-06-22T11:15:14;18.15;;;6.22;;
20084;SDS011;10202;48.474;9.138;2023-06-22T11:17:42;16.92;;;6.85;;
20084;SDS011;10202;48.474;9.138;2023-06-22T11:20:10;13.05;;;6.38;;
20084;SDS011;10202;48.474;9.138;2023-06-22T11:22:41;14.25;;;7.32;;
20084;SDS011;10202;48.474;9.138;2023-06-22T11:25:07;13.50;;;6.68;;
20084;SDS011;10202;48.474;9.138;2023-06-22T11:27:33;15.32;;;6.60;;
20084;SDS011;10202;48.474;9.138;2023-06-22T11:30:02;12.98;;;5.97;;
20084;SDS011;10202;48.474;9.138;2023-06-22T11:32:30;15.43;;;6.82;;
20084;SDS011;10202;48.474;9.138;2023-06-22T11:34:58;11.45;;;6.35;;
20084;SDS011;10202;48.474;9.138;2023-06-22T11:37:28;12.93;;;6.63;;
20084;SDS011;10202;48.474;9.138;2023-06-22T11:39:58;15.48;;;6.78;;
20084;SDS011;10202;48.474;9.138;2023-06-22T11:42:30;18.38;;;6.68;;
20084;SDS011;10202;48.474;9.138;2023-06-22T11:44:56;15.82;;;6.20;;
20084;SDS011;10202;48.474;9.138;2023-06-22T11:47:23;18.27;;;7.10;;
20084;SDS011;10202;48.474;9.138;2023-06-22T11:49:53;13.65;;;7.00;;
20084;SDS011;10202;48.474;9.138;2023-06-22T11:52:24;11.50;;;6.88;;
20084;SDS011;10202;48.474;9.138;2023-06-22T11:55:01;11.98;;;6.28;;
20084;SDS011;10202;48.474;9.138;2023-06-22T11:57:32;17.45;;;6.65;;
20084;SDS011;10202;48.474;9.138;2023-06-22T12:00:04;15.38;;;6.00;;
20084;SDS011;10202;48.474;9.138;2023-06-22T12:02:45;17.98;;;6.15;;
20084;SDS011;10202;48.474;9.138;2023-06-22T12:05:13;11.20;;;6.20;;
20084;SDS011;10202;48.474;9.138;2023-06-22T12:07:41;16.33;;;6.65;;
20084;SDS011;10202;48.474;9.138;2023-06-22T12:10:09;15.57;;;6.75;;
20084;SDS011;10202;48.474;9.138;2023-06-22T12:12:35;12.50;;;6.53;;
20084;SDS011;10202;48.474;9.138;2023-06-22T12:15:06;14.77;;;6.93;;
20084;SDS011;10202;48.474;9.138;2023-06-22T12:17:33;11.75;;;6.18;;
20084;SDS011;10202;48.474;9.138;2023-06-22T12:20:04;11.23;;;6.18;;
20084;SDS011;10202;48.474;9.138;2023-06-22T12:22:35;9.50;;;6.28;;
20084;SDS011;10202;48.474;9.138;2023-06-22T12:25:08;15.77;;;6.68;;
20084;SDS011;10202;48.474;9.138;2023-06-22T12:27:37;14.07;;;6.65;;
20084;SDS011;10202;48.474;9.138;2023-06-22T12:30:03;16.25;;;6.85;;
20084;SDS011;10202;48.474;9.138;2023-06-22T12:32:36;12.18;;;6.95;;
20084;SDS011;10202;48.474;9.138;2023-06-22T12:35:02;14.00;;;6.63;;
20084;SDS011;10202;48.474;9.138;2023-06-22T12:37:32;34.08;;;7.10;;
20084;SDS011;10202;48.474;9.138;2023-06-22T12:39:58;20.02;;;6.45;;
20084;SDS011;10202;48.474;9.138;2023-06-22T12:42:24;10.57;;;6.55;;
20084;SDS011;10202;48.474;9.138;2023-06-22T12:44:53;15.07;;;6.65;;
20084;SDS011;10202;48.474;9.138;2023-06-22T12:47:23;18.23;;;6.35;;
20084;SDS011;10202;48.474;9.138;2023-06-22T12:49:49;16.17;;;6.75;;
20084;SDS011;10202;48.474;9.138;2023-06-22T12:52:19;14.68;;;6.35;;
20084;SDS011;10202;48.474;9.138;2023-06-22T12:54:49;16.33;;;6.35;;
20084;SDS011;10202;48.474;9.138;2023-06-22T12:57:20;15.65;;;6.13;;
20084;SDS011;10202;48.474;9.138;2023-06-22T12:59:45;13.52;;;6.55;;
20084;SDS011;10202;48.474;9.138;2023-06-22T13:02:13;11.90;;;6.00;;
20084;SDS011;10202;48.474;9.138;2023-06-22T13:04:39;10.95;;;6.32;;
20084;SDS011;10202;48.474;9.138;2023-06-22T13:07:10;17.10;;;6.68;;
20084;SDS011;10202;48.474;9.138;2023-06-22T13:09:36;13.40;;;6.50;;
20084;SDS011;10202;48.474;9.138;2023-06-22T13:12:04;13.85;;;6.35;;
20084;SDS011;10202;48.474;9.138;2023-06-22T13:14:32;11.10;;;6.03;;
20084;SDS011;10202;48.474;9.138;2023-06-22T13:17:05;12.02;;;6.40;;
20084;SDS011;10202;48.474;9.138;2023-06-22T13:19:33;16.85;;;6.85;;
20084;SDS011;10202;48.474;9.138;2023-06-22T13:21:58;11.98;;;6.18;;
20084;SDS011;10202;48.474;9.138;2023-06-22T13:24:33;12.80;;;6.32;;
20084;SDS011;10202;48.474;9.138;2023-06-22T13:27:04;11.32;;;6.00;;
20084;SDS011;10202;48.474;9.138;2023-06-22T13:29:32;14.73;;;6.07;;
20084;SDS011;10202;48.474;9.138;2023-06-22T13:32:02;19.50;;;6.70;;
20084;SDS011;10202;48.474;9.138;2023-06-22T13:34:36;13.30;;;6.20;;
20084;SDS011;10202;48.474;9.138;2023-06-22T13:37:01;14.02;;;6.80;;
20084;SDS011;10202;48.474;9.138;2023-06-22T13:39:32;16.65;;;6.47;;
20084;SDS011;10202;48.474;9.138;2023-06-22T13:41:59;17.13;;;6.22;;
20084;SDS011;10202;48.474;9.138;2023-06-22T13:44:25;13.07;;;6.25;;
20084;SDS011;10202;48.474;9.138;2023-06-22T13:46:56;16.88;;;6.13;;
20084;SDS011;10202;48.474;9.138;2023-06-22T13:49:26;14.07;;;6.50;;
20084;SDS011;10202;48.474;9.138;2023-06-22T13:51:54;13.20;;;5.65;;
20084;SDS011;10202;48.474;9.138;2023-06-22T13:54:23;11.38;;;6.45;;
20084;SDS011;10202;48.474;9.138;2023-06-22T13:56:48;15.52;;;6.85;;
20084;SDS011;10202;48.474;9.138;2023-06-22T13:59:16;14.82;;;6.40;;
20084;SDS011;10202;48.474;9.138;2023-06-22T14:01:42;19.85;;;7.22;;
20084;SDS011;10202;48.474;9.138;2023-06-22T14:04:14;13.50;;;6.57;;
20084;SDS011;10202;48.474;9.138;2023-06-22T14:06:40;12.13;;;6.28;;
20084;SDS011;10202;48.474;9.138;2023-06-22T14:09:05;14.60;;;6.10;;
20084;SDS011;10202;48.474;9.138;2023-06-22T14:11:34;14.75;;;6.03;;
20084;SDS011;10202;48.474;9.138;2023-06-22T14:14:02;15.85;;;6.22;;
20084;SDS011;10202;48.474;9.138;2023-06-22T14:16:28;13.55;;;6.50;;
20084;SDS011;10202;48.474;9.138;2023-06-22T14:18:53;11.05;;;6.30;;
20084;SDS011;10202;48.474;9.138;2023-06-22T14:21:19;18.55;;;6.63;;
20084;SDS011;10202;48.474;9.138;2023-06-22T14:23:49;16.40;;;6.45;;
20084;SDS011;10202;48.474;9.138;2023-06-22T14:26:20;12.75;;;6.22;;
20084;SDS011;10202;48.474;9.138;2023-06-22T14:28:56;13.23;;;6.30;;
20084;SDS011;10202;48.474;9.138;2023-06-22T14:31:26;11.27;;;5.90;;
20084;SDS011;10202;48.474;9.138;2023-06-22T14:33:51;14.93;;;7.03;;
20084;SDS011;10202;48.474;9.138;2023-06-22T14:36:17;10.98;;;6.93;;
20084;SDS011;10202;48.474;9.138;2023-06-22T14:38:43;12.77;;;6.90;;
20084;SDS011;10202;48.474;9.138;2023-06-22T14:41:08;13.27;;;6.55;;
20084;SDS011;10202;48.474;9.138;2023-06-22T14:43:37;11.88;;;7.18;;
20084;SDS011;10202;48.474;9.138;2023-06-22T14:46:02;18.25;;;6.30;;
20084;SDS011;10202;48.474;9.138;2023-06-22T14:48:28;19.85;;;7.38;;
20084;SDS011;10202;48.474;9.138;2023-06-22T14:50:56;21.88;;;7.25;;